createdAt,value
2018-08-13T00:01:17.947Z,100999.37
2018-08-13T00:03:46.859Z,100991.91
2018-08-13T00:06:15.653Z,100989.59
2018-08-13T00:08:44.597Z,100989.59
2018-08-13T00:11:13.487Z,100988.67
2018-08-13T00:13:42.506Z,100983.77
2018-08-13T00:16:11.328Z,100979.77
2018-08-13T00:18:40.199Z,100975.82
2018-08-13T00:21:09.140Z,100973.50
2018-08-13T00:23:37.909Z,100974.23
2018-08-13T00:26:06.872Z,100972.91
2018-08-13T00:28:35.664Z,100967.50
2018-08-13T00:31:05.120Z,100976.24
2018-08-13T00:33:34.017Z,100968.52
2018-08-13T00:36:02.936Z,100959.30
2018-08-13T00:38:31.816Z,100963.80
2018-08-13T00:41:00.712Z,100954.95
2018-08-13T00:43:29.555Z,100954.53
2018-08-13T00:45:58.571Z,100948.51
2018-08-13T00:48:27.456Z,100951.14
2018-08-13T00:50:56.381Z,100948.05
2018-08-13T00:53:25.191Z,100944.91
2018-08-13T00:55:54.049Z,100940.71
2018-08-13T00:58:23.009Z,100941.86
2018-08-13T01:00:51.925Z,100942.88
2018-08-13T01:03:20.814Z,100941.77
2018-08-13T01:05:49.672Z,100934.98
2018-08-13T01:08:18.444Z,100934.22
2018-08-13T01:10:47.439Z,100932.86
2018-08-13T01:13:16.317Z,100934.23
2018-08-13T01:15:45.256Z,100929.38
2018-08-13T01:18:14.119Z,100934.52
2018-08-13T01:20:42.978Z,100923.86
2018-08-13T01:23:12.270Z,100924.42
2018-08-13T01:25:41.136Z,100924.52
2018-08-13T01:28:10.041Z,100924.64
2018-08-13T01:30:38.892Z,100922.11
2018-08-13T01:33:07.808Z,100921.83
2018-08-13T01:35:36.683Z,100920.94
2018-08-13T01:38:05.562Z,100912.05
2018-08-13T01:40:34.428Z,100902.38
2018-08-13T01:43:03.259Z,100904.19
2018-08-13T01:45:32.052Z,100898.52
2018-08-13T01:48:01.044Z,100897.20
2018-08-13T01:50:29.915Z,100897.36
2018-08-13T01:52:58.799Z,100893.12
2018-08-13T01:55:27.631Z,100889.40
2018-08-13T01:57:56.546Z,100882.50
2018-08-13T02:00:25.760Z,100883.40
2018-08-13T02:02:54.615Z,100883.19
2018-08-13T02:05:23.400Z,100892.31
2018-08-13T02:07:52.387Z,100887.55
2018-08-13T02:10:21.234Z,100882.22
2018-08-13T02:12:50.242Z,100885.70
2018-08-13T02:15:19.084Z,100885.14
2018-08-13T02:17:47.996Z,100880.52
2018-08-13T02:20:16.925Z,100882.51
2018-08-13T02:22:45.705Z,100880.03
2018-08-13T02:25:14.625Z,100882.48
2018-08-13T02:27:43.508Z,100883.34
2018-08-13T02:30:12.449Z,100880.28
2018-08-13T02:32:41.367Z,100884.44
2018-08-13T02:35:10.288Z,100880.81
2018-08-13T02:37:39.668Z,100870.11
2018-08-13T02:40:09.795Z,100879.72
2018-08-13T02:42:38.669Z,100873.76
2018-08-13T02:45:10.027Z,100871.41
2018-08-13T02:47:38.972Z,100878.13
2018-08-13T02:50:11.598Z,100863.33
2018-08-13T02:52:40.657Z,100862.94
2018-08-13T02:55:10.517Z,100859.80
2018-08-13T02:57:39.424Z,100855.27
2018-08-13T03:00:10.263Z,100855.92
2018-08-13T03:02:39.799Z,100852.95
2018-08-13T03:05:11.341Z,100846.23
2018-08-13T03:07:40.653Z,100843.51
2018-08-13T03:10:12.043Z,100842.66
2018-08-13T03:12:41.543Z,100844.45
2018-08-13T03:15:13.219Z,100833.75
2018-08-13T03:17:42.217Z,100832.52
2018-08-13T03:20:11.406Z,100823.85
2018-08-13T03:22:40.399Z,100818.09
2018-08-13T03:25:10.393Z,100810.59
2018-08-13T03:27:39.249Z,100808.45
2018-08-13T03:30:12.533Z,100811.64
2018-08-13T03:32:41.800Z,100807.53
2018-08-13T03:35:10.830Z,100807.91
2018-08-13T03:37:40.120Z,100802.80
2018-08-13T03:40:11.892Z,100801.32
2018-08-13T03:42:41.059Z,100801.78
2018-08-13T03:45:11.742Z,100805.56
2018-08-13T03:47:40.899Z,100806.09
2018-08-13T03:50:11.291Z,100808.34
2018-08-13T03:52:40.719Z,100805.53
2018-08-13T03:55:10.816Z,100803.54
2018-08-13T03:57:40.348Z,100802.25
2018-08-13T04:00:12.992Z,100801.05
2018-08-13T04:02:42.119Z,100792.78
2018-08-13T04:05:12.026Z,100792.55
2018-08-13T04:07:40.960Z,100795.67
2018-08-13T04:10:12.256Z,100789.08
2018-08-13T04:12:42.314Z,100796.38
2018-08-13T04:15:12.690Z,100791.66
2018-08-13T04:17:42.052Z,100789.66
2018-08-13T04:20:13.647Z,100788.15
2018-08-13T04:22:43.108Z,100776.48
2018-08-13T04:25:11.961Z,100778.31
2018-08-13T04:27:41.344Z,100779.47
2018-08-13T04:30:16.381Z,100777.95
2018-08-13T04:32:46.388Z,100776.71
2018-08-13T04:35:15.627Z,100770.62
2018-08-13T04:37:45.764Z,100764.95
2018-08-13T04:40:16.986Z,100766.50
2018-08-13T04:42:47.387Z,100763.45
2018-08-13T04:45:16.319Z,100759.13
2018-08-13T04:47:51.275Z,100761.86
2018-08-13T04:50:20.452Z,100755.92
2018-08-13T04:52:49.435Z,100756.59
2018-08-13T04:55:19.076Z,100764.58
2018-08-13T04:57:48.094Z,100768.11
2018-08-13T05:00:16.982Z,100766.61
2018-08-13T05:02:45.827Z,100758.63
2018-08-13T05:05:14.785Z,100760.98
2018-08-13T05:07:43.588Z,100763.39
2018-08-13T05:10:12.440Z,100764.25
2018-08-13T05:12:41.687Z,100759.25
2018-08-13T05:15:11.170Z,100766.30
2018-08-13T05:17:40.146Z,100758.73
2018-08-13T05:20:09.724Z,100768.34
2018-08-13T05:22:38.577Z,100769.57
2018-08-13T05:25:09.056Z,100769.68
2018-08-13T05:27:38.356Z,100769.39
2018-08-13T05:30:09.119Z,100773.50
2018-08-13T05:32:38.004Z,100766.24
2018-08-13T05:35:07.651Z,100765.59
2018-08-13T05:37:36.995Z,100769.57
2018-08-13T05:40:08.018Z,100760.71
2018-08-13T05:42:37.124Z,100758.37
2018-08-13T05:45:07.843Z,100757.66
2018-08-13T05:47:36.780Z,100761.72
2018-08-13T05:50:07.964Z,100753.72
2018-08-13T05:52:36.916Z,100755.37
2018-08-13T05:55:07.607Z,100754.17
2018-08-13T05:57:36.588Z,100745.81
2018-08-13T06:00:09.464Z,100748.03
2018-08-13T06:02:40.247Z,100752.59
2018-08-13T06:05:10.145Z,100752.84
2018-08-13T06:07:39.381Z,100742.88
2018-08-13T06:10:10.024Z,100743.34
2018-08-13T06:12:39.211Z,100744.38
2018-08-13T06:15:10.531Z,100743.26
2018-08-13T06:17:39.568Z,100749.62
2018-08-13T06:20:10.652Z,100757.49
2018-08-13T06:22:40.816Z,100753.09
2018-08-13T06:25:10.528Z,100744.05
2018-08-13T06:27:39.532Z,100742.67
2018-08-13T06:30:12.454Z,100744.09
2018-08-13T06:32:41.803Z,100749.80
2018-08-13T06:35:11.847Z,100751.13
2018-08-13T06:37:41.657Z,100750.45
2018-08-13T06:40:10.922Z,100750.48
2018-08-13T06:42:40.006Z,100756.76
2018-08-13T06:45:10.190Z,100767.43
2018-08-13T06:47:39.931Z,100753.88
2018-08-13T06:50:12.259Z,100752.41
2018-08-13T06:52:41.331Z,100750.05
2018-08-13T06:55:16.800Z,100754.91
2018-08-13T06:57:45.672Z,100747.63
2018-08-13T07:00:14.987Z,100746.27
2018-08-13T07:02:43.950Z,100739.03
2018-08-13T07:05:12.862Z,100739.75
2018-08-13T07:07:41.985Z,100749.69
2018-08-13T07:10:14.997Z,100752.37
2018-08-13T07:12:45.248Z,100745.23
2018-08-13T07:15:15.095Z,100753.69
2018-08-13T07:17:44.036Z,100749.09
2018-08-13T07:20:15.557Z,100750.31
2018-08-13T07:22:44.624Z,100751.81
2018-08-13T07:25:13.668Z,100745.77
2018-08-13T07:27:42.806Z,100749.78
2018-08-13T07:30:14.133Z,100741.91
2018-08-13T07:32:43.499Z,100734.88
2018-08-13T07:35:12.348Z,100728.84
2018-08-13T07:37:41.392Z,100729.93
2018-08-13T07:40:14.859Z,100731.80
2018-08-13T07:42:44.246Z,100736.38
2018-08-13T07:45:19.151Z,100727.22
2018-08-13T07:47:48.007Z,100734.14
2018-08-13T07:50:16.921Z,100726.19
2018-08-13T07:52:45.832Z,100732.33
2018-08-13T07:55:14.699Z,100728.56
2018-08-13T07:57:43.626Z,100735.72
2018-08-13T08:00:15.502Z,100731.36
2018-08-13T08:02:44.685Z,100727.50
2018-08-13T08:05:13.964Z,100724.80
2018-08-13T08:07:42.962Z,100717.80
2018-08-13T08:10:15.273Z,100724.53
2018-08-13T08:12:44.284Z,100724.77
2018-08-13T08:15:15.951Z,100734.06
2018-08-13T08:17:44.979Z,100727.68
2018-08-13T08:20:13.976Z,100726.66
2018-08-13T08:22:42.844Z,100730.93
2018-08-13T08:25:16.053Z,100723.64
2018-08-13T08:27:45.506Z,100716.19
2018-08-13T08:30:14.737Z,100715.09
2018-08-13T08:32:43.592Z,100704.59
2018-08-13T08:35:14.679Z,100702.14
2018-08-13T08:37:43.786Z,100703.01
2018-08-13T08:40:15.869Z,100704.83
2018-08-13T08:42:45.332Z,100705.80
2018-08-13T08:45:26.351Z,100699.81
2018-08-13T08:47:56.188Z,100697.14
2018-08-13T08:50:26.159Z,100695.47
2018-08-13T08:52:55.040Z,100701.11
2018-08-13T08:55:24.105Z,100703.06
2018-08-13T08:57:52.999Z,100703.54
2018-08-13T09:00:23.328Z,100707.02
2018-08-13T09:02:52.504Z,100715.20
2018-08-13T09:05:21.495Z,100705.56
2018-08-13T09:07:50.347Z,100701.39
2018-08-13T09:10:19.325Z,100707.91
2018-08-13T09:12:48.252Z,100718.48
2018-08-13T09:15:17.792Z,100721.25
2018-08-13T09:18:03.504Z,100722.67
2018-08-13T09:20:49.037Z,100714.67
2018-08-13T09:23:34.735Z,100708.12
2018-08-13T09:26:20.488Z,100707.14
2018-08-13T09:29:06.192Z,100705.70
2018-08-13T09:32:37.692Z,100710.63
2018-08-13T09:35:18.312Z,100701.86
2018-08-13T09:37:47.251Z,100696.06
2018-08-13T09:40:16.144Z,100700.39
2018-08-13T09:42:45.215Z,100692.66
2018-08-13T09:45:14.088Z,100693.80
2018-08-13T09:47:43.055Z,100692.38
2018-08-13T09:50:14.798Z,100692.78
2018-08-13T09:52:44.427Z,100701.35
2018-08-13T09:55:13.995Z,100708.33
2018-08-13T09:57:44.411Z,100704.08
2018-08-13T10:00:20.470Z,100708.78
2018-08-13T10:02:49.801Z,100699.10
2018-08-13T10:05:18.691Z,100712.98
2018-08-13T10:07:47.671Z,100705.58
2018-08-13T10:10:17.327Z,100707.40
2018-08-13T10:12:46.477Z,100704.27
2018-08-13T10:15:15.539Z,100703.61
2018-08-13T10:17:44.495Z,100709.42
2018-08-13T10:20:19.868Z,100710.88
2018-08-13T10:22:48.875Z,100719.73
2018-08-13T10:25:17.811Z,100718.19
2018-08-13T10:27:46.652Z,100724.70
2018-08-13T10:30:16.846Z,100733.70
2018-08-13T10:32:46.086Z,100733.02
2018-08-13T10:35:15.120Z,100732.59
2018-08-13T10:37:43.968Z,100728.63
2018-08-13T10:40:16.616Z,100722.48
2018-08-13T10:42:45.988Z,100717.00
2018-08-13T10:45:15.388Z,100728.37
2018-08-13T10:47:44.355Z,100740.29
2018-08-13T10:50:14.461Z,100735.70
2018-08-13T10:52:43.732Z,100733.16
2018-08-13T10:55:14.161Z,100741.65
2018-08-13T10:57:43.388Z,100728.72
2018-08-13T11:00:16.552Z,100724.06
2018-08-13T11:02:45.680Z,100723.53
2018-08-13T11:05:15.451Z,100741.69
2018-08-13T11:07:44.543Z,100732.91
2018-08-13T11:10:14.870Z,100739.60
2018-08-13T11:12:43.913Z,100745.61
2018-08-13T11:15:18.082Z,100734.56
2018-08-13T11:17:47.280Z,100724.80
2018-08-13T11:20:16.666Z,100726.57
2018-08-13T11:22:46.240Z,100737.44
2018-08-13T11:25:16.140Z,100742.30
2018-08-13T11:27:45.089Z,100733.27
2018-08-13T11:30:16.340Z,100744.89
2018-08-13T11:32:45.463Z,100743.86
2018-08-13T11:35:15.676Z,100741.83
2018-08-13T11:37:44.603Z,100746.98
2018-08-13T11:40:14.773Z,100740.98
2018-08-13T11:42:43.760Z,100724.25
2018-08-13T11:45:18.727Z,100725.80
2018-08-13T11:47:47.676Z,100727.17
2018-08-13T11:50:17.851Z,100723.73
2018-08-13T11:52:48.178Z,100721.02
2018-08-13T11:55:17.731Z,100709.83
2018-08-13T11:57:47.913Z,100712.23
2018-08-13T12:00:16.921Z,100721.23
2018-08-13T12:02:45.844Z,100707.63
2018-08-13T12:05:15.541Z,100717.70
2018-08-13T12:07:45.080Z,100714.20
2018-08-13T12:10:14.631Z,100701.33
2018-08-13T12:12:44.197Z,100688.58
2018-08-13T12:15:13.744Z,100683.84
2018-08-13T12:17:43.096Z,100693.44
2018-08-13T12:20:17.108Z,100693.52
2018-08-13T12:22:46.435Z,100690.59
2018-08-13T12:25:23.290Z,100686.77
2018-08-13T12:27:52.505Z,100685.23
2018-08-13T12:30:21.579Z,100676.08
2018-08-13T12:32:50.794Z,100683.25
2018-08-13T12:35:20.033Z,100686.52
2018-08-13T12:37:49.215Z,100682.80
2018-08-13T12:54:37.451Z,100665.38
2018-08-13T12:57:06.478Z,100664.72
2018-08-13T12:59:35.287Z,100658.75
2018-08-13T13:02:04.204Z,100654.48
2018-08-13T13:04:33.020Z,100651.39
2018-08-13T13:07:01.929Z,100650.55
2018-08-13T13:09:30.776Z,100640.20
2018-08-13T13:11:59.697Z,100639.56
2018-08-13T13:14:28.500Z,100630.91
2018-08-13T13:16:57.361Z,100633.48
2018-08-13T13:19:26.171Z,100632.88
2018-08-13T13:21:55.111Z,100633.61
2018-08-13T13:24:23.908Z,100631.66
2018-08-13T13:26:52.784Z,100633.82
2018-08-13T13:29:21.583Z,100637.59
2018-08-13T13:31:50.527Z,100633.53
2018-08-13T13:34:19.488Z,100633.93
2018-08-13T13:36:48.347Z,100623.97
2018-08-13T13:39:17.160Z,100620.50
2018-08-13T13:41:46.028Z,100612.27
2018-08-13T13:44:14.869Z,100612.45
2018-08-13T13:46:44.032Z,100612.95
2018-08-13T13:49:12.924Z,100616.53
2018-08-13T13:51:41.715Z,100618.86
2018-08-13T13:54:10.652Z,100616.21
2018-08-13T13:56:39.516Z,100617.98
2018-08-13T13:59:08.570Z,100603.52
2018-08-13T14:01:37.514Z,100605.72
2018-08-13T14:04:06.471Z,100606.18
2018-08-13T14:06:35.483Z,100599.98
2018-08-13T14:09:08.344Z,100603.63
2018-08-13T14:11:37.430Z,100590.96
2018-08-13T14:14:07.243Z,100586.77
2018-08-13T14:16:36.100Z,100579.63
2018-08-13T14:19:05.464Z,100577.69
2018-08-13T14:21:34.431Z,100572.84
2018-08-13T14:24:03.826Z,100567.04
2018-08-13T14:26:32.812Z,100565.56
2018-08-13T14:29:01.720Z,100562.22
2018-08-13T14:31:30.559Z,100554.16
2018-08-13T14:33:59.431Z,100558.95
2018-08-13T14:36:28.324Z,100550.31
2018-08-13T14:38:57.167Z,100550.41
2018-08-13T14:41:26.111Z,100551.14
2018-08-13T14:43:54.976Z,100544.99
2018-08-13T14:46:23.828Z,100536.20
2018-08-13T14:48:52.917Z,100537.55
2018-08-13T14:51:21.936Z,100538.28
2018-08-13T14:53:50.744Z,100528.42
2018-08-13T14:56:19.641Z,100531.30
2018-08-13T14:58:48.484Z,100523.62
2018-08-13T15:01:17.554Z,100531.94
2018-08-13T15:03:46.384Z,100524.58
2018-08-13T15:06:15.277Z,100525.65
2018-08-13T15:08:44.048Z,100521.17
2018-08-13T15:11:13.037Z,100526.59
2018-08-13T15:13:41.988Z,100534.83
2018-08-13T15:16:10.820Z,100530.18
2018-08-13T15:18:39.635Z,100531.94
2018-08-13T15:21:08.484Z,100528.92
2018-08-13T15:23:37.386Z,100541.24
2018-08-13T15:26:06.577Z,100538.99
2018-08-13T15:28:35.390Z,100550.84
2018-08-13T15:31:04.310Z,100567.45
2018-08-13T15:33:33.184Z,100557.22
2018-08-13T15:36:02.148Z,100557.64
2018-08-13T15:38:31.071Z,100555.97
2018-08-13T15:40:59.923Z,100558.69
2018-08-13T15:43:28.807Z,100548.87
2018-08-13T15:45:57.650Z,100550.02
2018-08-13T15:48:26.468Z,100558.87
2018-08-13T15:50:55.338Z,100567.91
2018-08-13T15:53:24.251Z,100580.00
2018-08-13T15:55:53.004Z,100590.22
2018-08-13T15:58:21.836Z,100586.33
2018-08-13T16:00:50.611Z,100588.19
2018-08-13T16:03:19.578Z,100590.09
2018-08-13T16:05:48.392Z,100591.47
2018-08-13T16:08:17.250Z,100581.59
2018-08-13T16:10:46.093Z,100580.20
2018-08-13T16:13:14.959Z,100583.59
2018-08-13T16:15:43.920Z,100588.55
2018-08-13T16:18:12.900Z,100589.34
2018-08-13T16:20:41.822Z,100590.14
2018-08-13T16:23:10.699Z,100600.02
2018-08-13T16:25:39.567Z,100615.32
2018-08-13T16:28:08.592Z,100634.30
2018-08-13T16:30:37.441Z,100616.55
2018-08-13T16:33:06.585Z,100615.83
2018-08-13T16:35:35.435Z,100623.48
2018-08-13T16:38:05.361Z,100626.91
2018-08-13T16:40:34.531Z,100639.80
2018-08-13T16:43:03.527Z,100657.44
2018-08-13T16:45:32.452Z,100641.98
2018-08-13T16:48:01.382Z,100636.42
2018-08-13T16:50:32.332Z,100627.64
2018-08-13T16:53:02.087Z,100619.42
2018-08-13T16:55:32.089Z,100631.19
2018-08-13T16:58:02.223Z,100638.97
2018-08-13T17:00:31.916Z,100624.03
2018-08-13T17:03:01.556Z,100616.59
2018-08-13T17:05:33.134Z,100619.58
2018-08-13T17:08:02.163Z,100633.69
2018-08-13T17:10:31.100Z,100633.69
2018-08-13T17:13:00.248Z,100627.16
2018-08-13T17:15:31.279Z,100628.16
2018-08-13T17:18:01.894Z,100627.29
2018-08-13T17:20:38.134Z,100611.92
2018-08-13T17:23:07.019Z,100611.23
2018-08-13T17:25:36.133Z,100605.63
2018-08-13T17:28:05.480Z,100588.58
2018-08-13T17:30:34.575Z,100591.16
2018-08-13T17:33:03.585Z,100597.23
2018-08-13T17:35:34.989Z,100590.27
2018-08-13T17:38:07.247Z,100597.14
2018-08-13T17:40:36.396Z,100602.50
2018-08-13T17:43:07.366Z,100599.91
2018-08-13T17:45:36.076Z,100602.97
2018-08-13T17:48:06.956Z,100606.11
2018-08-13T17:50:35.863Z,100601.64
2018-08-13T17:53:06.092Z,100596.83
2018-08-13T17:55:34.941Z,100591.41
2018-08-13T17:58:03.904Z,100599.48
2018-08-13T18:00:32.843Z,100600.99
2018-08-13T18:03:01.715Z,100605.97
2018-08-13T18:05:30.803Z,100611.33
2018-08-13T18:08:00.195Z,100612.02
2018-08-13T18:10:32.436Z,100607.11
2018-08-13T18:13:03.041Z,100601.28
2018-08-13T18:15:32.164Z,100616.91
2018-08-13T18:18:02.012Z,100623.50
2018-08-13T18:20:31.576Z,100625.42
2018-08-13T18:23:00.633Z,100624.41
2018-08-13T18:25:29.607Z,100631.06
2018-08-13T18:27:58.688Z,100632.70
2018-08-13T18:30:28.679Z,100633.71
2018-08-13T18:32:58.173Z,100637.64
2018-08-13T18:35:27.169Z,100637.48
2018-08-13T18:37:56.236Z,100638.33
2018-08-13T18:40:32.118Z,100640.89
2018-08-13T18:43:00.978Z,100640.30
2018-08-13T18:45:29.950Z,100638.75
2018-08-13T18:47:59.695Z,100647.83
2018-08-13T18:50:28.644Z,100645.36
2018-08-13T18:52:57.483Z,100651.11
2018-08-13T18:55:26.311Z,100652.09
2018-08-13T18:57:55.302Z,100655.38
2018-08-13T19:00:27.972Z,100660.15
2018-08-13T19:02:58.784Z,100659.03
2018-08-13T19:05:27.755Z,100657.85
2018-08-13T19:07:56.664Z,100657.39
2018-08-13T19:10:25.654Z,100657.86
2018-08-13T19:12:54.469Z,100664.13
2018-08-13T19:15:25.263Z,100656.55
2018-08-13T19:17:54.362Z,100656.55
2018-08-13T19:20:23.445Z,100654.48
2018-08-13T19:22:52.411Z,100650.00
2018-08-13T19:25:23.855Z,100649.66
2018-08-13T19:27:52.821Z,100651.59
2018-08-13T19:30:22.711Z,100650.14
2018-08-13T19:32:52.193Z,100646.41
2018-08-13T19:35:21.405Z,100648.13
2018-08-13T19:37:50.520Z,100648.38
2018-08-13T19:40:21.685Z,100648.95
2018-08-13T19:42:51.021Z,100649.96
2018-08-13T19:45:25.962Z,100654.23
2018-08-13T19:47:54.823Z,100664.86
2018-08-13T19:50:24.252Z,100659.84
2018-08-13T19:52:53.101Z,100660.09
2018-08-13T19:55:22.450Z,100666.20
2018-08-13T19:57:51.405Z,100671.22
2018-08-13T20:00:24.210Z,100676.91
2018-08-13T20:02:53.423Z,100683.98
2018-08-13T20:05:23.777Z,100692.17
2018-08-13T20:07:53.492Z,100690.04
2018-08-13T20:10:22.371Z,100693.00
2018-08-13T20:12:51.452Z,100696.81
2018-08-13T20:15:20.358Z,100697.87
2018-08-13T20:17:49.243Z,100695.19
2018-08-13T20:20:20.270Z,100692.28
2018-08-13T20:22:49.628Z,100693.73
2018-08-13T20:25:19.758Z,100692.39
2018-08-13T20:27:49.911Z,100684.87
2018-08-13T20:30:19.986Z,100678.76
2018-08-13T20:32:50.057Z,100679.14
2018-08-13T20:35:19.075Z,100683.42
2018-08-13T20:37:48.048Z,100691.35
2018-08-13T20:40:18.503Z,100696.14
2018-08-13T20:42:48.069Z,100695.56
2018-08-13T20:45:22.967Z,100694.70
2018-08-13T20:47:51.816Z,100691.42
2018-08-13T20:50:22.223Z,100690.97
2018-08-13T20:52:52.595Z,100698.56
2018-08-13T20:55:29.269Z,100705.42
2018-08-13T20:57:58.199Z,100701.67
2018-08-13T21:00:28.661Z,100699.53
2018-08-13T21:02:57.706Z,100699.39
2018-08-13T21:05:26.636Z,100702.70
2018-08-13T21:07:55.563Z,100707.84
2018-08-13T21:10:25.552Z,100709.30
2018-08-13T21:12:54.535Z,100712.19
2018-08-13T21:15:23.492Z,100710.45
2018-08-13T21:17:52.391Z,100713.01
2018-08-13T21:20:28.467Z,100712.74
2018-08-13T21:22:57.533Z,100716.56
2018-08-13T21:25:26.504Z,100715.33
2018-08-13T21:27:55.523Z,100715.95
2018-08-13T21:30:24.426Z,100712.80
2018-08-13T21:32:53.296Z,100715.53
2018-08-13T21:35:24.426Z,100720.67
2018-08-13T21:37:53.408Z,100713.95
2018-08-13T21:40:22.359Z,100716.88
2018-08-13T21:42:51.727Z,100714.36
2018-08-13T21:45:26.671Z,100717.38
2018-08-13T21:47:55.640Z,100724.90
2018-08-13T21:50:24.625Z,100725.84
2018-08-13T21:52:53.508Z,100725.08
2018-08-13T21:55:22.373Z,100729.70
2018-08-13T21:57:51.267Z,100728.91
2018-08-13T22:00:27.809Z,100734.08
2018-08-13T22:02:59.093Z,100732.65
2018-08-13T22:05:28.087Z,100734.80
2018-08-13T22:07:57.075Z,100733.00
2018-08-13T22:10:26.188Z,100739.84
2018-08-13T22:12:55.080Z,100737.61
2018-08-13T22:15:25.011Z,100737.26
2018-08-13T22:17:55.379Z,100739.78
2018-08-13T22:20:24.851Z,100743.16
2018-08-13T22:22:54.479Z,100747.95
2018-08-13T22:25:27.225Z,100747.69
2018-08-13T22:27:56.259Z,100751.41
2018-08-13T22:30:25.300Z,100754.58
2018-08-13T22:32:54.294Z,100765.06
2018-08-13T22:35:23.223Z,100762.30
2018-08-13T22:37:52.099Z,100763.14
2018-08-13T22:40:21.216Z,100770.25
2018-08-13T22:42:50.281Z,100764.17
2018-08-13T22:45:25.203Z,100764.15
2018-08-13T22:47:54.104Z,100770.09
2018-08-13T22:50:22.971Z,100775.55
2018-08-13T22:52:51.873Z,100781.31
2018-08-13T22:55:20.931Z,100778.55
2018-08-13T22:57:49.983Z,100773.39
2018-08-13T23:00:19.976Z,100771.05
2018-08-13T23:02:49.872Z,100773.83
2018-08-13T23:05:26.157Z,100776.92
2018-08-13T23:07:55.155Z,100781.75
2018-08-13T23:10:24.920Z,100782.46
2018-08-13T23:12:56.092Z,100785.00
2018-08-13T23:15:25.187Z,100785.45
2018-08-13T23:17:54.512Z,100783.84
2018-08-13T23:20:26.603Z,100783.39
2018-08-13T23:22:59.778Z,100790.79
2018-08-13T23:25:29.519Z,100788.66
2018-08-13T23:27:59.595Z,100796.13
2018-08-13T23:30:29.054Z,100790.97
2018-08-13T23:32:59.111Z,100790.13
2018-08-13T23:35:28.692Z,100789.69
2018-08-13T23:37:57.756Z,100794.88
2018-08-13T23:40:27.024Z,100796.13
2018-08-13T23:42:56.084Z,100799.06
2018-08-13T23:45:28.996Z,100798.45
2018-08-13T23:47:57.884Z,100802.41
2018-08-13T23:50:27.804Z,100801.78
2018-08-13T23:52:59.648Z,100799.10
2018-08-13T23:55:34.538Z,100800.64
2018-08-13T23:58:05.060Z,100801.45
